Time;durP1;ratioP1;P1;durP2;ratioP2;P2;SDS_P1;SDS_P2;PMS_P1;PMS_P2;Temp;Humidity;BMP_temperature;BMP_pressure;BME280_temperature;BME280_humidity;BME280_pressure;Samples;Min_cycle;Max_cycle;Signal;HPM_P1;HPM_P2
2021/07/12 00:00:16;;;;;;;1.40;1.23;;;17.30;99.90;;;;;;5064253;28;20564;-76
2021/07/12 00:02:42;;;;;;;2.30;1.27;;;17.30;99.90;;;;;;5064616;28;20176;-77
2021/07/12 00:05:09;;;;;;;2.40;1.40;;;17.20;99.90;;;;;;5065724;28;20179;-77
2021/07/12 00:07:35;;;;;;;2.17;1.10;;;17.10;99.90;;;;;;5046936;28;20283;-76
2021/07/12 00:10:01;;;;;;;1.57;1.30;;;17.10;99.90;;;;;;5065492;28;20338;-77
2021/07/12 00:12:27;;;;;;;2.70;1.47;;;17.10;99.90;;;;;;5048317;28;20195;-76
2021/07/12 00:14:52;;;;;;;2.17;1.20;;;17.10;99.90;;;;;;5064572;28;20553;-76
2021/07/12 00:17:18;;;;;;;2.20;1.17;;;17.10;99.90;;;;;;5063412;28;20203;-77
2021/07/12 00:19:44;;;;;;;1.30;1.20;;;17.00;99.90;;;;;;5065195;28;20186;-76
2021/07/12 00:22:09;;;;;;;1.40;1.20;;;17.00;99.90;;;;;;5062790;28;20661;-77
2021/07/12 00:24:35;;;;;;;1.53;1.43;;;17.00;99.90;;;;;;5064582;28;20192;-77
2021/07/12 00:27:00;;;;;;;6.67;1.50;;;17.00;99.90;;;;;;5064842;28;20215;-78
2021/07/12 00:29:26;;;;;;;1.50;1.40;;;17.00;99.90;;;;;;5065272;28;20251;-79
2021/07/12 00:31:52;;;;;;;2.43;1.30;;;16.90;99.90;;;;;;5063229;28;20177;-77
2021/07/12 00:34:17;;;;;;;3.30;1.33;;;16.80;99.90;;;;;;5061627;28;20297;-79
2021/07/12 00:36:43;;;;;;;1.20;1.10;;;16.60;99.90;;;;;;5069620;28;20607;-79
2021/07/12 00:39:09;;;;;;;2.73;1.70;;;16.60;99.90;;;;;;5050679;28;20179;-77
2021/07/12 00:41:37;;;;;;;1.60;1.50;;;16.60;99.90;;;;;;5061102;28;20266;-76
2021/07/12 00:44:06;;;;;;;1.93;1.43;;;16.60;99.90;;;;;;5052393;28;20173;-77
2021/07/12 00:46:32;;;;;;;4.03;1.87;;;16.40;99.90;;;;;;5072628;28;20192;-74
2021/07/12 00:48:58;;;;;;;1.87;1.40;;;16.30;99.90;;;;;;5065883;28;20183;-78
2021/07/12 00:51:25;;;;;;;1.67;1.30;;;16.40;99.90;;;;;;5045485;28;20174;-77
2021/07/12 00:53:51;;;;;;;1.73;1.43;;;16.40;99.90;;;;;;5061395;28;20634;-79
2021/07/12 00:56:18;;;;;;;1.93;1.30;;;16.40;99.90;;;;;;5069257;28;20191;-77
2021/07/12 00:58:43;;;;;;;2.37;1.57;;;16.30;99.90;;;;;;5060541;28;20222;-77
2021/07/12 01:01:09;;;;;;;2.00;1.57;;;16.30;99.90;;;;;;5050615;28;20179;-77
2021/07/12 01:03:36;;;;;;;2.33;1.77;;;16.20;99.90;;;;;;5071297;28;20200;-77
2021/07/12 01:06:03;;;;;;;2.43;1.63;;;16.20;99.90;;;;;;5067904;28;20180;-77
2021/07/12 01:08:29;;;;;;;3.40;1.50;;;16.20;99.90;;;;;;5048704;28;20220;-77
2021/07/12 01:11:00;;;;;;;1.50;1.40;;;16.10;99.90;;;;;;5067227;28;20631;-77
2021/07/12 01:13:49;;;;;;;1.20;1.10;;;16.00;99.90;;;;;;5067225;28;20177;-77
2021/07/12 01:16:33;;;;;;;4.77;1.60;;;16.10;99.90;;;;;;5049352;28;20275;-78
2021/07/12 01:19:20;;;;;;;3.10;1.20;;;16.20;99.90;;;;;;5069908;28;20176;-81
2021/07/12 01:22:20;;;;;;;2.20;1.43;;;16.20;99.90;;;;;;5068615;28;20529;-76
2021/07/12 01:25:04;;;;;;;3.57;1.80;;;16.20;99.90;;;;;;5068378;28;20509;-77
2021/07/12 01:28:14;;;;;;;2.33;1.40;;;16.20;99.90;;;;;;5048876;28;20612;-76
2021/07/12 01:31:16;;;;;;;1.30;1.20;;;16.20;99.90;;;;;;5050756;28;20179;-79
2021/07/12 01:33:54;;;;;;;4.40;1.37;;;16.20;99.90;;;;;;5051940;28;20206;-76
2021/07/12 01:36:41;;;;;;;1.97;1.63;;;16.20;99.90;;;;;;5050045;28;20322;-77
2021/07/12 01:39:18;;;;;;;1.40;1.30;;;16.20;99.90;;;;;;5066082;28;20202;-77
2021/07/12 01:41:46;;;;;;;2.30;1.67;;;16.30;99.90;;;;;;5050518;28;20671;-77
2021/07/12 01:44:40;;;;;;;1.40;1.30;;;16.30;99.90;;;;;;5050349;28;20202;-75
2021/07/12 01:47:07;;;;;;;2.50;1.40;;;16.20;99.90;;;;;;5051456;28;20215;-79
2021/07/12 01:49:42;;;;;;;1.97;1.43;;;16.20;99.90;;;;;;5050956;28;20270;-79
2021/07/12 01:52:33;;;;;;;1.53;1.30;;;16.20;99.90;;;;;;5035575;28;20258;-76
2021/07/12 01:55:01;;;;;;;1.50;1.20;;;16.20;99.90;;;;;;5049588;28;20262;-77
2021/07/12 01:57:31;;;;;;;1.60;1.47;;;16.20;99.90;;;;;;5065955;28;20238;-77
2021/07/12 02:00:06;;;;;;;2.50;1.20;;;16.30;99.90;;;;;;5048459;28;20198;-78
2021/07/12 02:02:32;;;;;;;1.57;1.37;;;16.20;99.90;;;;;;5050707;28;20641;-75
2021/07/12 02:05:03;;;;;;;1.40;1.30;;;16.20;99.90;;;;;;5067692;28;20268;-77
2021/07/12 02:07:31;;;;;;;3.37;1.67;;;16.20;99.90;;;;;;5049396;28;20745;-77
2021/07/12 02:10:00;;;;;;;1.70;1.30;;;16.20;99.90;;;;;;5062394;28;20170;-77
2021/07/12 02:12:28;;;;;;;1.60;1.40;;;16.20;99.90;;;;;;5055411;28;20661;-77
2021/07/12 02:14:55;;;;;;;2.90;1.30;;;16.20;99.90;;;;;;5047521;28;20211;-77
2021/07/12 02:17:24;;;;;;;1.70;1.23;;;16.10;99.90;;;;;;5067259;28;20204;-77
2021/07/12 02:19:51;;;;;;;1.30;1.20;;;16.00;99.90;;;;;;5069534;28;20640;-76
2021/07/12 02:22:18;;;;;;;1.77;1.17;;;16.00;99.90;;;;;;5049890;28;20182;-77
2021/07/12 02:24:46;;;;;;;3.03;1.47;;;16.00;99.90;;;;;;5065214;28;20184;-76
2021/07/12 02:27:19;;;;;;;1.63;1.23;;;16.00;99.90;;;;;;5061981;28;20217;-78
2021/07/12 02:29:46;;;;;;;1.83;1.10;;;15.90;99.90;;;;;;5066795;28;20178;-77
2021/07/12 02:32:12;;;;;;;4.03;1.37;;;15.80;99.90;;;;;;5035818;28;20216;-77
2021/07/12 02:34:39;;;;;;;4.13;1.40;;;15.70;99.90;;;;;;5049695;28;20178;-77
2021/07/12 02:37:05;;;;;;;2.90;1.83;;;15.70;99.90;;;;;;5032989;28;20205;-80
2021/07/12 02:39:32;;;;;;;1.87;1.50;;;15.60;99.90;;;;;;5051101;28;20193;-77
2021/07/12 02:41:58;;;;;;;1.87;1.40;;;15.60;99.90;;;;;;5049560;28;20185;-76
2021/07/12 02:44:27;;;;;;;2.07;1.70;;;15.60;99.90;;;;;;5044034;28;20204;-77
2021/07/12 02:46:53;;;;;;;1.77;1.47;;;15.60;99.90;;;;;;5066560;28;20237;-79
2021/07/12 02:49:19;;;;;;;1.53;1.43;;;15.30;99.90;;;;;;5045423;28;20208;-77
2021/07/12 02:51:52;;;;;;;2.40;1.50;;;15.30;99.90;;;;;;5064646;28;20178;-78
2021/07/12 02:54:22;;;;;;;1.83;1.10;;;15.30;99.90;;;;;;5069031;28;20546;-76
2021/07/12 02:56:48;;;;;;;2.40;1.67;;;15.30;99.90;;;;;;5065764;28;20174;-77
2021/07/12 02:59:15;;;;;;;2.33;1.60;;;15.40;99.90;;;;;;5065210;28;20233;-77
2021/07/12 03:01:41;;;;;;;2.07;1.67;;;15.20;99.90;;;;;;5066707;28;20177;-76
2021/07/12 03:04:06;;;;;;;5.40;2.10;;;15.10;99.90;;;;;;5050457;28;20530;-77
2021/07/12 03:06:33;;;;;;;3.00;1.60;;;15.10;99.90;;;;;;5066251;28;20197;-76
2021/07/12 03:09:05;;;;;;;3.53;1.60;;;15.00;99.90;;;;;;5066497;28;20230;-76
2021/07/12 03:11:41;;;;;;;2.37;1.77;;;15.20;99.90;;;;;;5064663;28;20162;-75
2021/07/12 03:14:28;;;;;;;2.10;1.90;;;15.20;99.90;;;;;;5065928;28;20173;-77
2021/07/12 03:16:54;;;;;;;3.73;1.63;;;15.20;99.90;;;;;;5064170;28;20239;-77
2021/07/12 03:19:26;;;;;;;1.70;1.57;;;15.10;99.90;;;;;;5051140;28;20231;-77
2021/07/12 03:21:55;;;;;;;3.50;1.80;;;15.20;99.90;;;;;;5069545;28;20537;-77
2021/07/12 03:24:21;;;;;;;2.00;1.70;;;15.10;99.90;;;;;;5032724;28;20644;-77
2021/07/12 03:26:52;;;;;;;2.17;1.93;;;14.90;99.90;;;;;;5064903;28;20204;-77
2021/07/12 03:29:19;;;;;;;2.13;1.70;;;15.00;99.90;;;;;;5050477;28;20184;-77
2021/07/12 03:31:45;;;;;;;2.70;1.70;;;15.00;99.90;;;;;;5070591;28;20173;-77
2021/07/12 03:34:15;;;;;;;2.00;1.63;;;15.00;99.90;;;;;;5069985;28;20545;-77
2021/07/12 03:36:44;;;;;;;1.57;1.43;;;15.00;99.90;;;;;;5062682;28;20190;-77
2021/07/12 03:39:10;;;;;;;1.50;1.40;;;15.00;99.90;;;;;;5070362;28;20180;-76
2021/07/12 03:41:37;;;;;;;3.90;2.07;;;14.90;99.90;;;;;;5052707;28;20260;-77
2021/07/12 03:44:05;;;;;;;2.83;1.90;;;14.80;99.90;;;;;;5071315;28;20533;-77
2021/07/12 03:46:31;;;;;;;2.70;1.83;;;14.80;99.90;;;;;;5049874;28;20220;-77
2021/07/12 03:48:56;;;;;;;2.67;2.00;;;14.70;99.90;;;;;;5070691;28;20622;-77
2021/07/12 03:51:27;;;;;;;2.50;2.03;;;14.60;99.90;;;;;;5069642;28;20256;-77
2021/07/12 03:53:53;;;;;;;3.60;1.80;;;14.70;99.90;;;;;;5067531;28;20248;-76
2021/07/12 03:56:19;;;;;;;2.10;1.73;;;14.70;99.90;;;;;;5072200;28;20172;-77
2021/07/12 03:58:46;;;;;;;3.90;1.80;;;14.50;99.90;;;;;;5071704;28;20205;-80
2021/07/12 04:01:19;;;;;;;4.07;2.23;;;14.30;99.90;;;;;;5044018;28;20184;-77
2021/07/12 04:03:48;;;;;;;4.70;1.87;;;14.10;99.90;;;;;;5062776;28;20170;-78
2021/07/12 04:06:13;;;;;;;2.93;2.30;;;14.20;99.90;;;;;;5060387;28;20213;-77
2021/07/12 04:08:39;;;;;;;3.30;2.33;;;14.30;99.90;;;;;;5068008;28;20193;-77
2021/07/12 04:11:05;;;;;;;3.10;2.53;;;14.50;99.90;;;;;;5082413;22;20226;31
2021/07/12 04:13:30;;;;;;;5.70;2.40;;;14.50;99.90;;;;;;5036669;28;20206;-79
2021/07/12 04:15:56;;;;;;;2.57;2.30;;;14.60;99.90;;;;;;5020924;28;20625;-79
2021/07/12 04:18:22;;;;;;;5.60;2.10;;;14.70;99.90;;;;;;5039974;28;20171;-79
2021/07/12 04:20:48;;;;;;;4.60;2.10;;;14.70;99.90;;;;;;5021924;28;20174;-78
2021/07/12 04:23:14;;;;;;;2.70;2.23;;;14.80;99.90;;;;;;5021995;28;20240;-78
2021/07/12 04:25:40;;;;;;;4.30;2.80;;;14.80;99.90;;;;;;5039148;28;20173;-78
2021/07/12 04:28:06;;;;;;;6.00;2.80;;;14.80;99.90;;;;;;5039662;28;20198;-78
2021/07/12 04:30:32;;;;;;;5.73;2.80;;;14.90;99.90;;;;;;5039533;28;20201;-78
2021/07/12 04:32:57;;;;;;;3.80;2.57;;;14.90;99.90;;;;;;5039489;28;20193;-77
2021/07/12 04:35:23;;;;;;;2.43;2.20;;;14.90;99.90;;;;;;5020711;28;20593;-77
2021/07/12 04:37:49;;;;;;;2.40;2.20;;;15.00;99.90;;;;;;5015873;28;20190;-79
2021/07/12 04:40:15;;;;;;;4.77;2.30;;;15.00;99.90;;;;;;5034568;28;20198;-77
2021/07/12 04:42:41;;;;;;;2.70;2.43;;;15.00;99.90;;;;;;5038485;28;20213;-78
2021/07/12 04:45:07;;;;;;;3.80;2.70;;;15.10;99.90;;;;;;5038907;28;20246;-78
2021/07/12 04:47:33;;;;;;;5.17;2.30;;;15.20;99.90;;;;;;5039558;28;20194;-79
2021/07/12 04:49:59;;;;;;;3.73;2.50;;;15.30;99.90;;;;;;5021681;28;20185;-78
2021/07/12 04:52:24;;;;;;;10.00;2.70;;;15.40;99.90;;;;;;5039618;28;20198;-78
2021/07/12 04:54:50;;;;;;;2.30;2.10;;;15.50;99.90;;;;;;5022180;28;20174;-78
2021/07/12 04:57:16;;;;;;;3.30;2.27;;;15.60;99.90;;;;;;5020020;28;20560;-78
2021/07/12 04:59:42;;;;;;;4.70;2.40;;;15.70;99.90;;;;;;5038216;28;20773;-78
2021/07/12 05:02:09;;;;;;;2.83;1.87;;;15.80;99.90;;;;;;5036089;28;20212;-78
2021/07/12 05:04:38;;;;;;;2.30;2.10;;;16.00;99.90;;;;;;5039283;28;20541;-79
2021/07/12 05:07:05;;;;;;;3.33;2.73;;;16.10;99.90;;;;;;5037903;28;20700;-78
2021/07/12 05:09:31;;;;;;;2.27;2.07;;;16.20;99.90;;;;;;5019055;28;20224;-79
2021/07/12 05:11:57;;;;;;;4.27;2.10;;;16.30;99.90;;;;;;5020031;28;20583;-81
2021/07/12 05:14:24;;;;;;;4.67;1.80;;;16.40;99.90;;;;;;5038369;28;20513;-81
2021/07/12 05:16:50;;;;;;;4.17;1.97;;;16.50;99.90;;;;;;5038427;28;20169;-83
2021/07/12 05:19:17;;;;;;;2.67;2.43;;;16.60;99.90;;;;;;5018588;28;20188;-81
2021/07/12 05:21:43;;;;;;;2.73;2.00;;;16.70;99.90;;;;;;5039043;28;20197;-81
2021/07/12 05:24:09;;;;;;;3.10;1.77;;;16.70;99.90;;;;;;5020714;28;20248;-81
2021/07/12 05:26:34;;;;;;;1.87;1.70;;;16.70;99.90;;;;;;5038144;28;20291;-81
2021/07/12 05:29:00;;;;;;;4.23;1.73;;;16.80;99.90;;;;;;5038299;28;20656;-81
2021/07/12 05:31:26;;;;;;;4.33;1.73;;;16.80;99.90;;;;;;5020922;28;20566;-80
2021/07/12 05:33:52;;;;;;;2.20;1.93;;;16.90;99.90;;;;;;5020686;28;20535;-81
2021/07/12 05:36:17;;;;;;;2.93;1.70;;;17.00;99.90;;;;;;5020532;28;20173;-81
2021/07/12 05:38:43;;;;;;;3.30;1.70;;;17.00;99.90;;;;;;5038012;28;20169;-81
2021/07/12 05:41:09;;;;;;;1.93;1.70;;;17.00;99.90;;;;;;5020423;28;20196;-83
2021/07/12 05:43:35;;;;;;;4.73;1.80;;;17.10;99.90;;;;;;5037178;28;20656;-81
2021/07/12 05:46:01;;;;;;;3.37;1.90;;;17.20;99.90;;;;;;5037123;28;20167;-81
2021/07/12 05:48:27;;;;;;;1.97;1.70;;;17.30;99.90;;;;;;5037035;28;20220;-81
2021/07/12 05:50:53;;;;;;;3.03;1.70;;;17.50;99.90;;;;;;5036349;28;20640;-81
2021/07/12 05:53:19;;;;;;;2.83;1.80;;;17.50;99.90;;;;;;5036619;28;20715;-81
2021/07/12 05:55:45;;;;;;;1.97;1.87;;;17.50;99.90;;;;;;5036714;28;20204;-81
2021/07/12 05:58:10;;;;;;;3.07;1.63;;;17.50;99.90;;;;;;5018881;28;20182;-82
2021/07/12 06:00:36;;;;;;;2.60;2.27;;;17.60;99.90;;;;;;5019199;28;20659;-81
2021/07/12 06:03:02;;;;;;;2.17;2.00;;;17.80;99.90;;;;;;5036213;28;20544;-81
2021/07/12 06:05:28;;;;;;;2.23;1.97;;;17.80;99.90;;;;;;5018639;28;20304;-81
2021/07/12 06:07:54;;;;;;;2.43;2.07;;;17.90;99.90;;;;;;5019267;28;20261;-81
2021/07/12 06:10:19;;;;;;;3.70;2.10;;;18.00;99.90;;;;;;5036597;28;20174;-81
2021/07/12 06:12:45;;;;;;;2.37;2.07;;;18.00;99.90;;;;;;5018463;28;20626;-81
2021/07/12 06:15:11;;;;;;;3.03;2.00;;;18.10;99.90;;;;;;5036391;28;20582;-81
2021/07/12 06:17:38;;;;;;;2.30;2.10;;;18.10;99.90;;;;;;5036702;28;20206;-81
2021/07/12 06:20:05;;;;;;;3.60;2.17;;;18.10;99.90;;;;;;5017848;28;20174;-81
2021/07/12 06:22:31;;;;;;;3.90;2.07;;;18.20;99.90;;;;;;5035423;28;20202;-80
2021/07/12 06:24:57;;;;;;;2.53;2.20;;;18.20;99.90;;;;;;5039277;28;20181;-81
2021/07/12 06:27:22;;;;;;;2.97;2.67;;;18.30;99.90;;;;;;5020773;28;20332;-81
2021/07/12 06:29:48;;;;;;;4.20;2.00;;;18.30;99.90;;;;;;5037564;28;20189;-82
2021/07/12 06:32:14;;;;;;;3.60;2.57;;;18.30;99.90;;;;;;5037726;28;20202;-81
2021/07/12 06:34:39;;;;;;;2.40;2.20;;;18.30;99.90;;;;;;5020328;28;20166;-82
2021/07/12 06:37:05;;;;;;;2.47;2.27;;;18.30;99.90;;;;;;5037730;28;20178;-82
2021/07/12 06:39:31;;;;;;;2.53;2.33;;;18.40;99.90;;;;;;5037530;28;20175;-81
2021/07/12 06:41:56;;;;;;;5.47;1.80;;;18.50;99.90;;;;;;5035534;28;20229;-82
2021/07/12 06:44:22;;;;;;;2.57;2.37;;;18.50;99.90;;;;;;5037624;28;20198;-81
2021/07/12 06:46:48;;;;;;;2.00;1.80;;;18.50;99.90;;;;;;5037618;28;20233;-82
2021/07/12 06:49:13;;;;;;;3.50;2.47;;;18.60;99.90;;;;;;5038526;28;20170;-82
2021/07/12 06:51:39;;;;;;;3.53;2.37;;;18.60;99.90;;;;;;5020102;28;20198;-81
2021/07/12 06:54:05;;;;;;;3.00;2.20;;;18.70;99.90;;;;;;5019048;28;20252;-81
2021/07/12 06:56:30;;;;;;;3.00;2.70;;;18.70;99.90;;;;;;5036373;28;20198;-81
2021/07/12 06:58:56;;;;;;;2.90;2.70;;;18.80;99.90;;;;;;5036057;28;20653;-80
2021/07/12 07:01:22;;;;;;;3.13;2.83;;;18.80;99.90;;;;;;5017961;28;20171;-81
2021/07/12 07:03:48;;;;;;;3.07;2.73;;;18.80;99.90;;;;;;5017450;28;20708;-80
2021/07/12 07:06:14;;;;;;;3.83;2.83;;;18.90;99.90;;;;;;5035236;28;20178;-81
2021/07/12 07:08:40;;;;;;;3.50;2.80;;;19.00;99.90;;;;;;5019337;28;20174;-82
2021/07/12 07:11:05;;;;;;;3.03;2.73;;;19.10;99.90;;;;;;5021543;28;20217;-81
2021/07/12 07:13:31;;;;;;;2.93;2.73;;;19.10;99.90;;;;;;5038975;28;20175;-81
2021/07/12 07:15:57;;;;;;;4.13;2.97;;;19.10;99.90;;;;;;5039814;28;20227;-81
2021/07/12 07:18:22;;;;;;;2.83;2.63;;;19.10;99.90;;;;;;5039373;28;20664;-81
2021/07/12 07:20:48;;;;;;;4.07;2.87;;;19.20;99.90;;;;;;5021954;28;20177;-81
2021/07/12 07:23:14;;;;;;;2.70;2.50;;;19.40;99.90;;;;;;5021923;28;20206;-81
2021/07/12 07:25:40;;;;;;;7.20;3.63;;;19.50;99.90;;;;;;5022895;28;20182;-82
2021/07/12 07:28:06;;;;;;;4.10;2.20;;;19.50;99.90;;;;;;5022312;28;20673;-81
2021/07/12 07:30:32;;;;;;;2.90;2.50;;;19.70;99.90;;;;;;5040063;28;20182;-81
2021/07/12 07:32:57;;;;;;;2.40;2.20;;;19.70;99.90;;;;;;5040050;28;20728;-81
2021/07/12 07:35:23;;;;;;;2.23;2.03;;;19.80;99.90;;;;;;5023506;28;20173;-81
2021/07/12 07:37:49;;;;;;;2.57;2.20;;;19.90;99.90;;;;;;5024412;28;20181;-81
2021/07/12 07:40:20;;;;;;;2.10;1.90;;;20.10;99.90;;;;;;5023645;28;20179;-82
2021/07/12 07:42:46;;;;;;;5.97;2.33;;;20.10;99.90;;;;;;5040950;28;20221;-81
2021/07/12 07:45:13;;;;;;;3.23;1.80;;;20.10;99.90;;;;;;5040351;28;20202;-81
2021/07/12 07:47:40;;;;;;;4.07;2.00;;;20.10;99.90;;;;;;5040623;28;20190;-83
2021/07/12 07:50:07;;;;;;;2.20;2.00;;;20.20;99.90;;;;;;5041199;28;20551;-81
2021/07/12 07:52:32;;;;;;;4.67;2.20;;;20.30;99.90;;;;;;5041122;28;20199;-80
2021/07/12 07:54:58;;;;;;;1.87;1.77;;;20.30;99.90;;;;;;5024349;28;20178;-82
2021/07/12 07:57:24;;;;;;;2.00;1.73;;;20.40;99.90;;;;;;5039939;28;20182;-82
2021/07/12 07:59:49;;;;;;;1.83;1.63;;;20.40;99.90;;;;;;5038185;28;20549;-81
2021/07/12 08:02:15;;;;;;;2.37;2.00;;;20.50;99.90;;;;;;5037521;28;20202;-82
2021/07/12 08:04:41;;;;;;;2.37;2.17;;;20.60;99.90;;;;;;5037777;28;20668;-82
2021/07/12 08:07:07;;;;;;;2.00;1.67;;;20.70;99.90;;;;;;5037471;28;20199;-81
2021/07/12 08:09:33;;;;;;;2.40;2.20;;;20.70;99.90;;;;;;5037781;28;20178;-82
2021/07/12 08:11:59;;;;;;;2.90;1.83;;;20.70;99.90;;;;;;5037562;28;20708;-81
2021/07/12 08:14:25;;;;;;;2.73;1.87;;;20.80;99.90;;;;;;5038400;28;20175;-82
2021/07/12 08:16:51;;;;;;;2.17;1.87;;;20.90;99.90;;;;;;5038682;28;20178;-81
2021/07/12 08:19:17;;;;;;;2.47;2.27;;;20.80;99.90;;;;;;5039362;28;20189;-82
2021/07/12 08:21:44;;;;;;;2.80;1.83;;;20.70;99.90;;;;;;5021777;28;20203;-82
2021/07/12 08:24:10;;;;;;;2.37;2.00;;;20.80;99.90;;;;;;5039807;28;20236;-81
2021/07/12 08:26:36;;;;;;;2.00;1.83;;;21.00;99.90;;;;;;5040117;28;20214;-81
2021/07/12 08:29:03;;;;;;;5.93;2.60;;;21.20;99.90;;;;;;5039998;28;20645;-81
2021/07/12 08:31:29;;;;;;;3.03;1.80;;;21.40;99.90;;;;;;5040016;28;20191;-81
2021/07/12 08:33:54;;;;;;;2.77;1.90;;;21.50;99.90;;;;;;5040566;28;20174;-81
2021/07/12 08:36:20;;;;;;;1.90;1.77;;;21.70;99.90;;;;;;5039676;28;20170;-82
2021/07/12 08:38:46;;;;;;;2.80;2.17;;;21.70;99.90;;;;;;5022566;28;20171;-82
2021/07/12 08:41:12;;;;;;;2.17;1.93;;;21.80;99.90;;;;;;5039346;28;20280;-82
2021/07/12 08:43:40;;;;;;;2.10;1.90;;;21.70;99.90;;;;;;5037953;28;20190;-82
2021/07/12 08:46:06;;;;;;;1.90;1.80;;;21.60;99.90;;;;;;5021153;28;20641;-81
2021/07/12 08:48:32;;;;;;;3.87;1.70;;;21.70;99.90;;;;;;5038409;28;20244;-82
2021/07/12 08:50:57;;;;;;;3.10;1.67;;;21.70;99.90;;;;;;5037916;28;20178;-82
2021/07/12 08:53:23;;;;;;;2.20;1.67;;;21.70;99.90;;;;;;5020510;28;20190;-82
2021/07/12 08:55:49;;;;;;;3.90;1.80;;;21.80;99.90;;;;;;5018315;28;20176;-81
2021/07/12 08:58:23;;;;;;;2.10;1.90;;;22.00;99.90;;;;;;5020174;28;20269;-82
2021/07/12 09:00:53;;;;;;;2.37;1.83;;;22.00;99.90;;;;;;5019653;28;20179;-82
2021/07/12 09:03:32;;;;;;;2.43;2.23;;;22.00;99.90;;;;;;5036349;28;20205;-81
2021/07/12 09:06:09;;;;;;;2.40;1.80;;;22.00;99.90;;;;;;5037114;28;20178;-82
2021/07/12 09:08:42;;;;;;;1.70;1.60;;;22.20;99.90;;;;;;5019871;28;20594;-82
2021/07/12 09:11:16;;;;;;;2.47;2.10;;;22.40;99.90;;;;;;5035162;28;20191;-81
2021/07/12 09:13:46;;;;;;;2.47;1.60;;;22.40;99.90;;;;;;5018923;28;20190;-82
2021/07/12 09:16:25;;;;;;;2.27;1.83;;;22.50;99.90;;;;;;5036609;28;20181;-82
2021/07/12 09:19:01;;;;;;;2.47;2.03;;;22.60;99.90;;;;;;5036794;28;20551;-82
2021/07/12 09:21:34;;;;;;;2.10;1.90;;;22.70;99.90;;;;;;5041269;28;20644;-81
2021/07/12 09:24:25;;;;;;;1.80;1.70;;;22.80;99.90;;;;;;5039745;28;20170;-82
2021/07/12 09:27:00;;;;;;;4.60;1.90;;;22.90;99.90;;;;;;5038502;28;20197;-81
2021/07/12 09:29:32;;;;;;;1.70;1.50;;;23.00;99.90;;;;;;5037280;28;20211;-82
2021/07/12 09:31:59;;;;;;;1.73;1.60;;;23.20;99.90;;;;;;5038195;28;20193;-82
2021/07/12 09:34:26;;;;;;;2.37;2.17;;;23.20;99.90;;;;;;5035118;28;20166;-82
2021/07/12 09:36:52;;;;;;;2.77;1.80;;;23.20;99.90;;;;;;5038749;28;20175;-82
2021/07/12 09:39:32;;;;;;;2.20;2.00;;;23.20;99.90;;;;;;5020331;28;20186;-81
2021/07/12 09:42:13;;;;;;;2.20;1.77;;;23.40;99.90;;;;;;5038068;28;20247;-82
2021/07/12 09:45:00;;;;;;;2.80;1.90;;;23.60;99.90;;;;;;5018942;28;20186;-82
2021/07/12 09:47:31;;;;;;;3.70;1.90;;;23.40;99.90;;;;;;5017188;28;20598;-82
2021/07/12 09:50:12;;;;;;;2.70;1.90;;;23.40;99.90;;;;;;5039993;28;20174;-82
2021/07/12 09:52:39;;;;;;;1.63;1.53;;;23.40;99.90;;;;;;5037535;28;20190;-82
2021/07/12 09:55:05;;;;;;;2.00;1.60;;;23.50;99.90;;;;;;5039262;28;20309;-83
2021/07/12 09:57:30;;;;;;;2.33;1.90;;;23.50;99.90;;;;;;5017253;28;20180;-74
2021/07/12 09:59:59;;;;;;;2.63;1.80;;;23.50;99.90;;;;;;5026600;28;20175;-73
2021/07/12 10:02:26;;;;;;;1.97;1.77;;;23.70;99.90;;;;;;5019381;28;20746;-73
2021/07/12 10:04:59;;;;;;;1.87;1.60;;;23.80;99.90;;;;;;5019109;28;20190;-73
2021/07/12 10:07:26;;;;;;;2.00;1.77;;;24.10;99.90;;;;;;5029097;28;20197;-73
2021/07/12 10:09:53;;;;;;;1.97;1.80;;;24.20;99.90;;;;;;5025757;28;20251;-73
2021/07/12 10:12:18;;;;;;;2.23;2.03;;;24.20;99.90;;;;;;5029186;28;20214;-74
2021/07/12 10:14:45;;;;;;;1.87;1.77;;;24.40;99.90;;;;;;5012523;28;20777;-73
2021/07/12 10:17:12;;;;;;;2.00;1.70;;;24.60;99.90;;;;;;5011008;28;20221;-74
2021/07/12 10:19:38;;;;;;;4.10;1.77;;;24.70;99.90;;;;;;5013910;28;20784;-73
2021/07/12 10:22:05;;;;;;;2.73;1.87;;;24.80;99.90;;;;;;5016505;28;20203;-74
2021/07/12 10:24:42;;;;;;;2.33;1.97;;;24.80;99.90;;;;;;5017887;28;20619;-74
2021/07/12 10:27:21;;;;;;;4.33;2.27;;;24.80;99.90;;;;;;5030618;28;20197;-73
2021/07/12 10:29:48;;;;;;;9.60;2.33;;;24.80;99.90;;;;;;5028819;28;20179;-73
2021/07/12 10:32:16;;;;;;;3.77;2.13;;;25.00;99.90;;;;;;5031114;28;20229;-73
2021/07/12 10:34:50;;;;;;;4.43;2.03;;;25.20;99.90;;;;;;5028979;28;20240;-73
2021/07/12 10:37:38;;;;;;;3.83;2.40;;;25.30;99.90;;;;;;5029250;28;20751;-73
2021/07/12 10:40:14;;;;;;;3.13;2.33;;;25.40;99.90;;;;;;5029849;28;20584;-74
2021/07/12 10:42:43;;;;;;;2.23;2.00;;;25.50;99.90;;;;;;5027979;28;20622;-73
2021/07/12 10:45:27;;;;;;;2.20;2.00;;;25.50;99.90;;;;;;5032232;28;20189;-73
2021/07/12 10:47:59;;;;;;;2.27;1.77;;;25.50;99.90;;;;;;5014773;28;20198;-73
2021/07/12 10:50:48;;;;;;;5.10;1.90;;;25.50;99.90;;;;;;5031136;28;20170;-73
2021/07/12 10:53:22;;;;;;;1.80;1.70;;;25.70;99.90;;;;;;5027466;28;20668;-73
2021/07/12 10:56:03;;;;;;;1.87;1.77;;;25.60;99.90;;;;;;5013002;28;20209;-74
2021/07/12 10:58:34;;;;;;;4.27;2.10;;;25.60;99.90;;;;;;5021314;28;20176;-73
2021/07/12 11:01:04;;;;;;;2.37;1.80;;;25.80;99.90;;;;;;5029917;28;20542;-73
2021/07/12 11:03:41;;;;;;;2.07;1.87;;;25.70;99.90;;;;;;5016540;28;20573;-73
2021/07/12 11:06:08;;;;;;;2.30;1.80;;;25.80;99.90;;;;;;5030878;28;20178;-74
2021/07/12 11:08:48;;;;;;;3.23;2.30;;;25.90;99.90;;;;;;5031226;28;20225;-73
2021/07/12 11:11:20;;;;;;;5.67;3.63;;;25.90;99.90;;;;;;5029329;28;20549;-73
2021/07/12 11:13:53;;;;;;;7.37;4.67;;;26.20;99.90;;;;;;5032428;28;20175;-74
2021/07/12 11:16:21;;;;;;;6.27;4.60;;;26.40;99.90;;;;;;5030989;28;20205;-73
2021/07/12 11:18:48;;;;;;;6.27;4.57;;;26.60;99.90;;;;;;5078163;22;20226;-76
2021/07/12 11:21:15;;;;;;;6.87;5.53;;;26.80;99.90;;;;;;5026348;28;20175;-76
2021/07/12 11:23:49;;;;;;;9.33;5.60;;;26.90;99.90;;;;;;5046875;28;20280;-76
2021/07/12 11:26:20;;;;;;;7.10;4.50;;;27.00;99.90;;;;;;5048377;28;20193;-75
2021/07/12 11:28:58;;;;;;;4.90;4.37;;;27.10;99.90;;;;;;5050342;28;20683;-75
2021/07/12 11:31:43;;;;;;;4.63;3.37;;;27.00;99.90;;;;;;5049481;28;20574;-76
2021/07/12 11:34:29;;;;;;;4.17;2.83;;;27.10;99.90;;;;;;5043784;28;20201;-76
2021/07/12 11:36:59;;;;;;;3.23;2.83;;;27.20;99.90;;;;;;5049080;28;20188;-75
2021/07/12 11:39:28;;;;;;;4.10;2.20;;;27.30;99.90;;;;;;5050723;28;20259;-76
2021/07/12 11:41:55;;;;;;;3.97;2.63;;;27.40;99.90;;;;;;5049032;28;20692;-76
2021/07/12 11:44:21;;;;;;;7.23;3.10;;;27.30;99.90;;;;;;5045704;28;20548;-76
2021/07/12 11:46:50;;;;;;;3.03;2.27;;;27.00;99.90;;;;;;5046738;28;20653;-76
2021/07/12 11:49:18;;;;;;;4.37;2.30;;;27.00;99.90;;;;;;5049030;28;20370;-76
2021/07/12 11:51:50;;;;;;;8.27;2.33;;;26.90;99.90;;;;;;5045836;28;20174;-76
2021/07/12 11:54:20;;;;;;;3.20;2.80;;;27.10;99.90;;;;;;5041994;28;20812;-77
2021/07/12 11:57:04;;;;;;;4.43;2.20;;;27.10;99.90;;;;;;5045798;28;20605;-77
2021/07/12 11:59:35;;;;;;;3.40;2.67;;;27.40;99.90;;;;;;5044342;28;20231;-77
2021/07/12 12:02:11;;;;;;;3.10;2.10;;;27.50;99.90;;;;;;5044437;28;20212;-76
2021/07/12 12:04:56;;;;;;;3.57;2.20;;;27.70;99.90;;;;;;5040466;28;20189;-76
2021/07/12 12:07:28;;;;;;;3.17;2.40;;;27.90;99.90;;;;;;5047361;28;20190;-76
2021/07/12 12:09:56;;;;;;;2.50;2.30;;;27.90;99.90;;;;;;5043065;28;20221;-76
2021/07/12 12:12:31;;;;;;;2.17;2.07;;;28.10;99.90;;;;;;5048491;28;20719;-77
2021/07/12 12:15:04;;;;;;;3.47;2.37;;;28.10;99.90;;;;;;5040949;28;20181;-77
2021/07/12 12:17:30;;;;;;;2.07;1.87;;;28.10;99.90;;;;;;5041824;28;20204;-76
2021/07/12 12:20:05;;;;;;;2.63;2.10;;;28.10;99.90;;;;;;5038137;28;20217;-77
2021/07/12 12:22:31;;;;;;;2.77;2.37;;;28.20;99.90;;;;;;5040649;28;20193;-75
2021/07/12 12:24:56;;;;;;;4.43;2.10;;;28.00;99.90;;;;;;5039687;28;20197;-77
2021/07/12 12:27:22;;;;;;;2.17;1.67;;;27.90;99.90;;;;;;5042984;28;20194;-76
2021/07/12 12:29:48;;;;;;;2.43;2.23;;;27.80;99.90;;;;;;5039779;28;20204;-76
2021/07/12 12:32:34;;;;;;;2.07;1.90;;;27.90;99.90;;;;;;5040437;28;20187;-76
2021/07/12 12:35:03;;;;;;;2.33;2.07;;;27.90;99.90;;;;;;5047943;28;20217;-76
2021/07/12 12:37:40;;;;;;;2.40;1.90;;;27.80;99.90;;;;;;5050090;28;20206;-76
2021/07/12 12:40:19;;;;;;;2.20;2.00;;;27.70;99.90;;;;;;5038149;28;20598;-76
2021/07/12 12:42:47;;;;;;;2.50;1.80;;;27.70;99.90;;;;;;5043266;28;20558;-77
2021/07/12 12:45:22;;;;;;;1.90;1.80;;;27.60;99.90;;;;;;5050184;28;20228;-77
2021/07/12 12:47:48;;;;;;;2.83;2.20;;;27.40;99.90;;;;;;5052759;28;20193;-76
2021/07/12 12:50:15;;;;;;;4.73;2.20;;;27.20;99.90;;;;;;5053177;28;20209;-77
2021/07/12 12:52:41;;;;;;;2.17;1.93;;;27.10;99.90;;;;;;5052792;28;20184;-76
2021/07/12 12:55:11;;;;;;;2.43;2.10;;;27.10;99.90;;;;;;5053333;28;20178;-76
2021/07/12 12:57:42;;;;;;;4.07;3.47;;;27.10;99.90;;;;;;5052945;28;20189;-77